Florence, Oregon
Current Conditions -  °F | °C
As of 5:55 PM on Monday 24 Nov 2014 (Local Time) from KOTH Reporting Station
Overcast Overcast  
Wind Chill: 57°   Ceiling: 2100
Heat Index: 57°   Visibility: 10mi
Dew Point: 54°   Wind: 5mph
Humidity: 88%   Direction: 150°SSE
Pressure: 30.34"   Gusts: NA
Location:  43.97°N, 124.1°W
Report Text: KOTH 250155Z 15004KT 10SM OVC021 14/12 A3034 RMK AO1
Loading
Personal Weather Stations






























Interactive Weather Map New forecast layout! Learn more

10-Day Weather Forecast

Advertisements
Track Severe Weather on mobile